sensor_id;sensor_type;location;lat;lon;timestamp;P1;durP1;ratioP1;P2;durP2;ratioP2
15155;SDS011;7678;50.058;8.306;2023-04-25T00:00:27;5.97;;;5.37;;
15155;SDS011;7678;50.058;8.306;2023-04-25T00:02:57;6.77;;;5.47;;
15155;SDS011;7678;50.058;8.306;2023-04-25T00:05:26;6.57;;;5.87;;
15155;SDS011;7678;50.058;8.306;2023-04-25T00:07:55;7.30;;;5.87;;
15155;SDS011;7678;50.058;8.306;2023-04-25T00:10:25;6.20;;;5.57;;
15155;SDS011;7678;50.058;8.306;2023-04-25T00:12:53;6.87;;;6.17;;
15155;SDS011;7678;50.058;8.306;2023-04-25T00:15:22;7.00;;;5.97;;
15155;SDS011;7678;50.058;8.306;2023-04-25T00:17:50;7.33;;;5.33;;
15155;SDS011;7678;50.058;8.306;2023-04-25T00:20:20;6.23;;;5.60;;
15155;SDS011;7678;50.058;8.306;2023-04-25T00:22:49;6.23;;;5.63;;
15155;SDS011;7678;50.058;8.306;2023-04-25T00:25:19;7.03;;;5.50;;
15155;SDS011;7678;50.058;8.306;2023-04-25T00:27:47;7.17;;;6.43;;
15155;SDS011;7678;50.058;8.306;2023-04-25T00:30:15;6.70;;;5.87;;
15155;SDS011;7678;50.058;8.306;2023-04-25T00:32:43;8.57;;;6.43;;
15155;SDS011;7678;50.058;8.306;2023-04-25T00:35:12;7.80;;;7.00;;
15155;SDS011;7678;50.058;8.306;2023-04-25T00:37:42;7.73;;;6.23;;
15155;SDS011;7678;50.058;8.306;2023-04-25T00:40:12;7.87;;;6.53;;
15155;SDS011;7678;50.058;8.306;2023-04-25T00:42:41;7.97;;;7.13;;
15155;SDS011;7678;50.058;8.306;2023-04-25T00:45:09;9.10;;;7.40;;
15155;SDS011;7678;50.058;8.306;2023-04-25T00:47:41;8.10;;;6.77;;
15155;SDS011;7678;50.058;8.306;2023-04-25T00:50:10;8.13;;;7.00;;
15155;SDS011;7678;50.058;8.306;2023-04-25T00:52:40;8.63;;;7.00;;
15155;SDS011;7678;50.058;8.306;2023-04-25T00:55:11;8.00;;;7.20;;
15155;SDS011;7678;50.058;8.306;2023-04-25T00:57:40;10.23;;;6.70;;
15155;SDS011;7678;50.058;8.306;2023-04-25T01:00:08;9.50;;;8.50;;
15155;SDS011;7678;50.058;8.306;2023-04-25T01:02:37;9.03;;;7.73;;
15155;SDS011;7678;50.058;8.306;2023-04-25T01:05:06;8.70;;;7.30;;
15155;SDS011;7678;50.058;8.306;2023-04-25T01:07:35;8.30;;;7.40;;
15155;SDS011;7678;50.058;8.306;2023-04-25T01:10:05;8.17;;;6.87;;
15155;SDS011;7678;50.058;8.306;2023-04-25T01:12:34;10.33;;;8.47;;
15155;SDS011;7678;50.058;8.306;2023-04-25T01:15:03;8.07;;;7.27;;
15155;SDS011;7678;50.058;8.306;2023-04-25T01:17:35;8.50;;;6.70;;
15155;SDS011;7678;50.058;8.306;2023-04-25T01:20:04;7.00;;;6.30;;
15155;SDS011;7678;50.058;8.306;2023-04-25T01:22:35;7.77;;;7.07;;
15155;SDS011;7678;50.058;8.306;2023-04-25T01:25:04;8.00;;;7.20;;
15155;SDS011;7678;50.058;8.306;2023-04-25T01:27:33;9.73;;;7.97;;
15155;SDS011;7678;50.058;8.306;2023-04-25T01:30:03;9.20;;;7.27;;
15155;SDS011;7678;50.058;8.306;2023-04-25T01:38:11;7.67;;;6.97;;
15155;SDS011;7678;50.058;8.306;2023-04-25T01:40:40;8.00;;;7.20;;
15155;SDS011;7678;50.058;8.306;2023-04-25T01:43:10;8.43;;;7.60;;
15155;SDS011;7678;50.058;8.306;2023-04-25T01:45:40;7.23;;;6.53;;
15155;SDS011;7678;50.058;8.306;2023-04-25T01:48:09;10.37;;;7.87;;
15155;SDS011;7678;50.058;8.306;2023-04-25T01:50:38;8.90;;;8.00;;
15155;SDS011;7678;50.058;8.306;2023-04-25T01:53:08;9.20;;;8.30;;
15155;SDS011;7678;50.058;8.306;2023-04-25T01:55:39;10.63;;;8.77;;
15155;SDS011;7678;50.058;8.306;2023-04-25T01:58:07;10.57;;;9.03;;
15155;SDS011;7678;50.058;8.306;2023-04-25T02:00:39;11.63;;;8.97;;
15155;SDS011;7678;50.058;8.306;2023-04-25T02:03:07;12.60;;;8.50;;
15155;SDS011;7678;50.058;8.306;2023-04-25T02:05:36;11.60;;;9.73;;
15155;SDS011;7678;50.058;8.306;2023-04-25T02:08:05;10.47;;;9.40;;
15155;SDS011;7678;50.058;8.306;2023-04-25T02:10:35;10.00;;;9.00;;
15155;SDS011;7678;50.058;8.306;2023-04-25T02:13:05;13.20;;;10.27;;
15155;SDS011;7678;50.058;8.306;2023-04-25T02:15:33;10.97;;;9.83;;
15155;SDS011;7678;50.058;8.306;2023-04-25T02:18:01;11.73;;;10.20;;
15155;SDS011;7678;50.058;8.306;2023-04-25T02:20:30;14.93;;;10.30;;
15155;SDS011;7678;50.058;8.306;2023-04-25T02:22:58;14.30;;;10.90;;
15155;SDS011;7678;50.058;8.306;2023-04-25T02:25:26;11.30;;;9.77;;
15155;SDS011;7678;50.058;8.306;2023-04-25T02:27:56;20.50;;;11.27;;
15155;SDS011;7678;50.058;8.306;2023-04-25T02:30:26;12.80;;;10.17;;
15155;SDS011;7678;50.058;8.306;2023-04-25T02:32:54;11.47;;;10.33;;
15155;SDS011;7678;50.058;8.306;2023-04-25T02:35:23;16.00;;;11.23;;
15155;SDS011;7678;50.058;8.306;2023-04-25T02:37:51;15.93;;;10.80;;
15155;SDS011;7678;50.058;8.306;2023-04-25T02:40:19;15.50;;;10.17;;
15155;SDS011;7678;50.058;8.306;2023-04-25T02:42:47;14.03;;;10.60;;
15155;SDS011;7678;50.058;8.306;2023-04-25T02:45:15;17.37;;;10.67;;
15155;SDS011;7678;50.058;8.306;2023-04-25T02:47:45;14.00;;;11.27;;
15155;SDS011;7678;50.058;8.306;2023-04-25T02:50:14;12.03;;;10.77;;
15155;SDS011;7678;50.058;8.306;2023-04-25T02:52:42;15.73;;;11.23;;
15155;SDS011;7678;50.058;8.306;2023-04-25T02:55:13;17.27;;;10.93;;
15155;SDS011;7678;50.058;8.306;2023-04-25T02:57:42;16.00;;;10.93;;
15155;SDS011;7678;50.058;8.306;2023-04-25T03:00:10;12.80;;;11.03;;
15155;SDS011;7678;50.058;8.306;2023-04-25T03:02:40;12.17;;;10.07;;
15155;SDS011;7678;50.058;8.306;2023-04-25T03:05:10;14.40;;;11.27;;
15155;SDS011;7678;50.058;8.306;2023-04-25T03:07:38;15.63;;;12.37;;
15155;SDS011;7678;50.058;8.306;2023-04-25T03:10:07;14.00;;;11.07;;
15155;SDS011;7678;50.058;8.306;2023-04-25T03:12:36;17.70;;;11.40;;
15155;SDS011;7678;50.058;8.306;2023-04-25T03:15:05;12.73;;;10.33;;
15155;SDS011;7678;50.058;8.306;2023-04-25T03:17:33;15.43;;;10.60;;
15155;SDS011;7678;50.058;8.306;2023-04-25T03:20:03;12.67;;;11.07;;
15155;SDS011;7678;50.058;8.306;2023-04-25T03:22:35;14.23;;;11.17;;
15155;SDS011;7678;50.058;8.306;2023-04-25T03:25:04;16.20;;;11.97;;
15155;SDS011;7678;50.058;8.306;2023-04-25T03:27:33;14.30;;;11.93;;
15155;SDS011;7678;50.058;8.306;2023-04-25T03:30:02;15.90;;;12.13;;
15155;SDS011;7678;50.058;8.306;2023-04-25T03:32:31;16.23;;;12.23;;
15155;SDS011;7678;50.058;8.306;2023-04-25T03:34:59;15.77;;;12.17;;
15155;SDS011;7678;50.058;8.306;2023-04-25T03:37:29;18.60;;;12.53;;
15155;SDS011;7678;50.058;8.306;2023-04-25T03:39:59;16.37;;;11.40;;
15155;SDS011;7678;50.058;8.306;2023-04-25T03:42:29;20.40;;;12.93;;
15155;SDS011;7678;50.058;8.306;2023-04-25T03:44:57;15.50;;;12.80;;
15155;SDS011;7678;50.058;8.306;2023-04-25T03:47:27;17.93;;;12.93;;
15155;SDS011;7678;50.058;8.306;2023-04-25T03:49:56;21.83;;;14.27;;
15155;SDS011;7678;50.058;8.306;2023-04-25T03:52:24;17.87;;;12.90;;
15155;SDS011;7678;50.058;8.306;2023-04-25T03:54:53;18.67;;;11.93;;
15155;SDS011;7678;50.058;8.306;2023-04-25T03:57:23;15.83;;;11.37;;
15155;SDS011;7678;50.058;8.306;2023-04-25T04:00:03;15.67;;;11.37;;
15155;SDS011;7678;50.058;8.306;2023-04-25T04:02:32;15.23;;;10.33;;
15155;SDS011;7678;50.058;8.306;2023-04-25T04:05:04;18.43;;;10.53;;
15155;SDS011;7678;50.058;8.306;2023-04-25T04:07:33;16.13;;;11.00;;
15155;SDS011;7678;50.058;8.306;2023-04-25T04:10:06;13.90;;;10.20;;
15155;SDS011;7678;50.058;8.306;2023-04-25T04:12:36;15.63;;;10.20;;
15155;SDS011;7678;50.058;8.306;2023-04-25T04:15:04;18.87;;;10.03;;
15155;SDS011;7678;50.058;8.306;2023-04-25T04:17:33;15.87;;;10.20;;
15155;SDS011;7678;50.058;8.306;2023-04-25T04:20:06;13.83;;;9.60;;
15155;SDS011;7678;50.058;8.306;2023-04-25T04:22:35;13.77;;;9.73;;
15155;SDS011;7678;50.058;8.306;2023-04-25T04:25:04;16.57;;;9.60;;
15155;SDS011;7678;50.058;8.306;2023-04-25T04:27:34;16.67;;;9.30;;
15155;SDS011;7678;50.058;8.306;2023-04-25T04:30:04;14.37;;;8.27;;
15155;SDS011;7678;50.058;8.306;2023-04-25T04:32:34;15.13;;;8.40;;
15155;SDS011;7678;50.058;8.306;2023-04-25T04:35:03;15.23;;;8.23;;
15155;SDS011;7678;50.058;8.306;2023-04-25T04:37:33;16.97;;;8.43;;
15155;SDS011;7678;50.058;8.306;2023-04-25T04:40:04;16.70;;;8.53;;
15155;SDS011;7678;50.058;8.306;2023-04-25T04:42:33;18.17;;;9.13;;
15155;SDS011;7678;50.058;8.306;2023-04-25T04:45:04;18.70;;;9.33;;
15155;SDS011;7678;50.058;8.306;2023-04-25T04:47:41;16.13;;;8.37;;
15155;SDS011;7678;50.058;8.306;2023-04-25T04:50:10;13.10;;;8.53;;
15155;SDS011;7678;50.058;8.306;2023-04-25T04:52:38;15.10;;;9.43;;
15155;SDS011;7678;50.058;8.306;2023-04-25T04:55:10;18.00;;;8.93;;
15155;SDS011;7678;50.058;8.306;2023-04-25T04:57:39;19.77;;;9.27;;
15155;SDS011;7678;50.058;8.306;2023-04-25T05:00:09;15.67;;;8.27;;
15155;SDS011;7678;50.058;8.306;2023-04-25T05:02:38;18.53;;;8.60;;
15155;SDS011;7678;50.058;8.306;2023-04-25T05:05:09;17.20;;;8.63;;
15155;SDS011;7678;50.058;8.306;2023-04-25T05:07:39;17.40;;;8.90;;
15155;SDS011;7678;50.058;8.306;2023-04-25T05:10:08;15.10;;;8.10;;
15155;SDS011;7678;50.058;8.306;2023-04-25T05:12:37;17.27;;;7.87;;
15155;SDS011;7678;50.058;8.306;2023-04-25T05:15:05;15.63;;;7.73;;
15155;SDS011;7678;50.058;8.306;2023-04-25T05:17:38;11.97;;;6.70;;
15155;SDS011;7678;50.058;8.306;2023-04-25T05:20:09;16.43;;;7.20;;
15155;SDS011;7678;50.058;8.306;2023-04-25T05:22:37;13.07;;;6.30;;
15155;SDS011;7678;50.058;8.306;2023-04-25T05:25:09;11.03;;;6.83;;
15155;SDS011;7678;50.058;8.306;2023-04-25T05:27:38;15.03;;;7.40;;
15155;SDS011;7678;50.058;8.306;2023-04-25T05:30:07;14.13;;;6.20;;
15155;SDS011;7678;50.058;8.306;2023-04-25T05:32:38;14.27;;;5.77;;
15155;SDS011;7678;50.058;8.306;2023-04-25T05:37:38;14.63;;;6.03;;
15155;SDS011;7678;50.058;8.306;2023-04-25T05:40:06;15.20;;;6.30;;
15155;SDS011;7678;50.058;8.306;2023-04-25T05:42:35;15.67;;;6.47;;
15155;SDS011;7678;50.058;8.306;2023-04-25T05:45:04;14.00;;;7.10;;
15155;SDS011;7678;50.058;8.306;2023-04-25T05:47:35;15.23;;;6.23;;
15155;SDS011;7678;50.058;8.306;2023-04-25T05:50:05;14.37;;;7.10;;
15155;SDS011;7678;50.058;8.306;2023-04-25T05:52:34;16.33;;;6.70;;
15155;SDS011;7678;50.058;8.306;2023-04-25T05:55:03;14.27;;;6.47;;
15155;SDS011;7678;50.058;8.306;2023-04-25T05:57:31;14.37;;;6.67;;
15155;SDS011;7678;50.058;8.306;2023-04-25T05:59:59;14.83;;;7.00;;
15155;SDS011;7678;50.058;8.306;2023-04-25T06:02:27;12.27;;;6.30;;
15155;SDS011;7678;50.058;8.306;2023-04-25T06:04:57;14.03;;;6.40;;
15155;SDS011;7678;50.058;8.306;2023-04-25T06:07:25;13.20;;;5.80;;
15155;SDS011;7678;50.058;8.306;2023-04-25T06:09:53;14.27;;;6.43;;
15155;SDS011;7678;50.058;8.306;2023-04-25T06:12:21;17.40;;;6.10;;
15155;SDS011;7678;50.058;8.306;2023-04-25T06:14:49;13.60;;;6.13;;
15155;SDS011;7678;50.058;8.306;2023-04-25T06:17:17;12.70;;;5.97;;
15155;SDS011;7678;50.058;8.306;2023-04-25T06:19:45;11.87;;;5.43;;
15155;SDS011;7678;50.058;8.306;2023-04-25T06:22:16;15.70;;;6.63;;
15155;SDS011;7678;50.058;8.306;2023-04-25T06:24:44;15.80;;;6.97;;
15155;SDS011;7678;50.058;8.306;2023-04-25T06:27:12;12.17;;;5.80;;
15155;SDS011;7678;50.058;8.306;2023-04-25T06:29:42;10.13;;;5.87;;
15155;SDS011;7678;50.058;8.306;2023-04-25T06:32:10;11.03;;;5.70;;
15155;SDS011;7678;50.058;8.306;2023-04-25T06:34:38;12.27;;;5.80;;
15155;SDS011;7678;50.058;8.306;2023-04-25T06:37:12;9.23;;;5.57;;
15155;SDS011;7678;50.058;8.306;2023-04-25T06:39:41;14.63;;;5.93;;
15155;SDS011;7678;50.058;8.306;2023-04-25T06:42:09;12.77;;;5.40;;
15155;SDS011;7678;50.058;8.306;2023-04-25T06:44:37;7.93;;;5.20;;
15155;SDS011;7678;50.058;8.306;2023-04-25T06:47:05;11.43;;;5.60;;
15155;SDS011;7678;50.058;8.306;2023-04-25T06:49:33;9.63;;;6.30;;
15155;SDS011;7678;50.058;8.306;2023-04-25T06:52:02;11.53;;;5.43;;
15155;SDS011;7678;50.058;8.306;2023-04-25T06:54:30;12.27;;;5.70;;
15155;SDS011;7678;50.058;8.306;2023-04-25T06:57:00;11.23;;;5.80;;
15155;SDS011;7678;50.058;8.306;2023-04-25T06:59:28;12.87;;;5.43;;
15155;SDS011;7678;50.058;8.306;2023-04-25T07:01:56;11.47;;;5.80;;
15155;SDS011;7678;50.058;8.306;2023-04-25T07:04:24;13.60;;;5.80;;
15155;SDS011;7678;50.058;8.306;2023-04-25T07:06:53;13.13;;;4.90;;
15155;SDS011;7678;50.058;8.306;2023-04-25T07:09:21;12.97;;;4.87;;
15155;SDS011;7678;50.058;8.306;2023-04-25T07:11:49;9.47;;;4.03;;
15155;SDS011;7678;50.058;8.306;2023-04-25T07:14:18;7.70;;;3.97;;
15155;SDS011;7678;50.058;8.306;2023-04-25T07:16:46;7.73;;;3.57;;
15155;SDS011;7678;50.058;8.306;2023-04-25T07:19:14;7.40;;;3.30;;
15155;SDS011;7678;50.058;8.306;2023-04-25T07:21:42;8.13;;;3.43;;
15155;SDS011;7678;50.058;8.306;2023-04-25T07:24:10;9.13;;;3.07;;
15155;SDS011;7678;50.058;8.306;2023-04-25T07:26:38;8.70;;;3.03;;
15155;SDS011;7678;50.058;8.306;2023-04-25T07:29:06;8.33;;;3.53;;
15155;SDS011;7678;50.058;8.306;2023-04-25T07:31:36;7.57;;;3.10;;
15155;SDS011;7678;50.058;8.306;2023-04-25T07:34:05;7.40;;;3.40;;
15155;SDS011;7678;50.058;8.306;2023-04-25T07:36:33;8.13;;;3.63;;
15155;SDS011;7678;50.058;8.306;2023-04-25T07:39:01;5.07;;;2.47;;
15155;SDS011;7678;50.058;8.306;2023-04-25T07:41:29;8.83;;;3.07;;
15155;SDS011;7678;50.058;8.306;2023-04-25T07:43:57;7.23;;;2.87;;
15155;SDS011;7678;50.058;8.306;2023-04-25T07:46:25;7.70;;;3.13;;
15155;SDS011;7678;50.058;8.306;2023-04-25T07:48:55;6.00;;;2.70;;
15155;SDS011;7678;50.058;8.306;2023-04-25T07:51:23;5.10;;;2.60;;
15155;SDS011;7678;50.058;8.306;2023-04-25T07:53:52;7.10;;;2.47;;
15155;SDS011;7678;50.058;8.306;2023-04-25T07:56:20;6.47;;;2.77;;
15155;SDS011;7678;50.058;8.306;2023-04-25T07:58:48;6.67;;;2.17;;
15155;SDS011;7678;50.058;8.306;2023-04-25T08:01:18;8.40;;;2.20;;
15155;SDS011;7678;50.058;8.306;2023-04-25T08:03:47;6.37;;;2.40;;
15155;SDS011;7678;50.058;8.306;2023-04-25T08:06:17;6.40;;;2.33;;
15155;SDS011;7678;50.058;8.306;2023-04-25T08:08:46;5.73;;;2.33;;
15155;SDS011;7678;50.058;8.306;2023-04-25T08:11:14;6.57;;;2.07;;
15155;SDS011;7678;50.058;8.306;2023-04-25T08:13:42;7.70;;;2.03;;
15155;SDS011;7678;50.058;8.306;2023-04-25T08:16:10;8.40;;;2.53;;
15155;SDS011;7678;50.058;8.306;2023-04-25T08:18:39;10.27;;;2.40;;
15155;SDS011;7678;50.058;8.306;2023-04-25T08:21:07;6.43;;;2.37;;
15155;SDS011;7678;50.058;8.306;2023-04-25T08:23:39;5.83;;;2.20;;
15155;SDS011;7678;50.058;8.306;2023-04-25T08:26:07;5.50;;;2.37;;
15155;SDS011;7678;50.058;8.306;2023-04-25T08:28:35;6.93;;;2.30;;
15155;SDS011;7678;50.058;8.306;2023-04-25T08:31:03;8.27;;;2.30;;
15155;SDS011;7678;50.058;8.306;2023-04-25T08:33:31;9.13;;;2.67;;
15155;SDS011;7678;50.058;8.306;2023-04-25T08:35:59;6.03;;;2.27;;
15155;SDS011;7678;50.058;8.306;2023-04-25T08:38:27;3.80;;;2.30;;
15155;SDS011;7678;50.058;8.306;2023-04-25T08:40:57;3.83;;;2.30;;
15155;SDS011;7678;50.058;8.306;2023-04-25T08:43:28;5.97;;;2.57;;
15155;SDS011;7678;50.058;8.306;2023-04-25T08:45:57;4.30;;;2.83;;
15155;SDS011;7678;50.058;8.306;2023-04-25T08:48:27;7.90;;;2.70;;
15155;SDS011;7678;50.058;8.306;2023-04-25T08:50:56;7.00;;;2.90;;
15155;SDS011;7678;50.058;8.306;2023-04-25T08:53:27;5.53;;;3.10;;
15155;SDS011;7678;50.058;8.306;2023-04-25T08:55:58;10.47;;;3.37;;
15155;SDS011;7678;50.058;8.306;2023-04-25T08:58:28;9.03;;;3.70;;
15155;SDS011;7678;50.058;8.306;2023-04-25T09:00:56;5.53;;;2.97;;
15155;SDS011;7678;50.058;8.306;2023-04-25T09:03:24;7.33;;;3.40;;
15155;SDS011;7678;50.058;8.306;2023-04-25T09:05:53;6.73;;;3.47;;
15155;SDS011;7678;50.058;8.306;2023-04-25T09:08:22;7.87;;;3.17;;
15155;SDS011;7678;50.058;8.306;2023-04-25T09:10:50;9.17;;;3.83;;
15155;SDS011;7678;50.058;8.306;2023-04-25T09:13:25;5.33;;;2.97;;
15155;SDS011;7678;50.058;8.306;2023-04-25T09:15:55;7.00;;;3.57;;
15155;SDS011;7678;50.058;8.306;2023-04-25T09:18:24;6.10;;;3.50;;
15155;SDS011;7678;50.058;8.306;2023-04-25T09:20:57;7.13;;;4.18;;
15155;SDS011;7678;50.058;8.306;2023-04-25T09:23:39;7.38;;;4.07;;
15155;SDS011;7678;50.058;8.306;2023-04-25T09:26:09;8.33;;;4.10;;
15155;SDS011;7678;50.058;8.306;2023-04-25T09:28:38;5.73;;;3.53;;
15155;SDS011;7678;50.058;8.306;2023-04-25T09:31:09;8.13;;;4.00;;
15155;SDS011;7678;50.058;8.306;2023-04-25T09:33:38;8.82;;;4.07;;
15155;SDS011;7678;50.058;8.306;2023-04-25T09:36:08;7.27;;;3.87;;
15155;SDS011;7678;50.058;8.306;2023-04-25T09:38:40;7.60;;;4.20;;
15155;SDS011;7678;50.058;8.306;2023-04-25T09:41:09;6.47;;;3.97;;
15155;SDS011;7678;50.058;8.306;2023-04-25T09:43:39;7.03;;;3.80;;
15155;SDS011;7678;50.058;8.306;2023-04-25T09:46:12;7.87;;;3.93;;
15155;SDS011;7678;50.058;8.306;2023-04-25T09:48:40;9.27;;;3.90;;
15155;SDS011;7678;50.058;8.306;2023-04-25T09:51:14;7.20;;;4.37;;
15155;SDS011;7678;50.058;8.306;2023-04-25T09:53:43;10.57;;;4.50;;
15155;SDS011;7678;50.058;8.306;2023-04-25T09:56:16;11.60;;;4.80;;
15155;SDS011;7678;50.058;8.306;2023-04-25T09:58:47;8.85;;;4.75;;
15155;SDS011;7678;50.058;8.306;2023-04-25T10:01:17;9.67;;;4.47;;
15155;SDS011;7678;50.058;8.306;2023-04-25T10:03:48;7.63;;;4.50;;
15155;SDS011;7678;50.058;8.306;2023-04-25T10:06:19;7.00;;;4.30;;
15155;SDS011;7678;50.058;8.306;2023-04-25T10:08:49;6.40;;;3.63;;
15155;SDS011;7678;50.058;8.306;2023-04-25T10:11:21;7.37;;;4.20;;
15155;SDS011;7678;50.058;8.306;2023-04-25T10:13:53;6.67;;;3.50;;
15155;SDS011;7678;50.058;8.306;2023-04-25T10:16:22;10.20;;;4.70;;
15155;SDS011;7678;50.058;8.306;2023-04-25T10:18:50;4.93;;;3.23;;
15155;SDS011;7678;50.058;8.306;2023-04-25T10:21:19;7.87;;;3.23;;
15155;SDS011;7678;50.058;8.306;2023-04-25T10:23:49;8.33;;;3.70;;
15155;SDS011;7678;50.058;8.306;2023-04-25T10:26:18;7.93;;;3.93;;
15155;SDS011;7678;50.058;8.306;2023-04-25T10:28:56;9.40;;;3.53;;
15155;SDS011;7678;50.058;8.306;2023-04-25T10:31:24;7.50;;;3.57;;
15155;SDS011;7678;50.058;8.306;2023-04-25T10:33:53;8.43;;;4.37;;
15155;SDS011;7678;50.058;8.306;2023-04-25T10:36:22;7.40;;;3.80;;
15155;SDS011;7678;50.058;8.306;2023-04-25T10:38:51;6.60;;;3.40;;
15155;SDS011;7678;50.058;8.306;2023-04-25T10:41:20;7.37;;;3.37;;
15155;SDS011;7678;50.058;8.306;2023-04-25T10:43:50;9.10;;;3.97;;
15155;SDS011;7678;50.058;8.306;2023-04-25T10:46:28;11.90;;;4.37;;
15155;SDS011;7678;50.058;8.306;2023-04-25T10:48:57;7.73;;;3.80;;
15155;SDS011;7678;50.058;8.306;2023-04-25T10:51:27;9.00;;;3.60;;
15155;SDS011;7678;50.058;8.306;2023-04-25T10:54:16;11.90;;;3.63;;
15155;SDS011;7678;50.058;8.306;2023-04-25T10:56:48;8.00;;;4.00;;
15155;SDS011;7678;50.058;8.306;2023-04-25T10:59:18;8.43;;;3.40;;
15155;SDS011;7678;50.058;8.306;2023-04-25T11:01:48;7.83;;;2.93;;
15155;SDS011;7678;50.058;8.306;2023-04-25T11:04:21;7.50;;;3.47;;
15155;SDS011;7678;50.058;8.306;2023-04-25T11:06:56;9.10;;;3.27;;
15155;SDS011;7678;50.058;8.306;2023-04-25T11:09:33;8.47;;;3.40;;
15155;SDS011;7678;50.058;8.306;2023-04-25T11:14:23;7.13;;;3.13;;
15155;SDS011;7678;50.058;8.306;2023-04-25T11:16:52;8.70;;;3.65;;
15155;SDS011;7678;50.058;8.306;2023-04-25T11:19:24;7.03;;;3.00;;
15155;SDS011;7678;50.058;8.306;2023-04-25T11:21:54;8.23;;;3.17;;
15155;SDS011;7678;50.058;8.306;2023-04-25T11:24:25;9.63;;;3.37;;
15155;SDS011;7678;50.058;8.306;2023-04-25T11:26:54;8.07;;;3.33;;
15155;SDS011;7678;50.058;8.306;2023-04-25T11:29:23;8.87;;;3.37;;
15155;SDS011;7678;50.058;8.306;2023-04-25T11:31:54;9.25;;;3.28;;
15155;SDS011;7678;50.058;8.306;2023-04-25T11:34:24;6.83;;;3.17;;
15155;SDS011;7678;50.058;8.306;2023-04-25T11:36:53;9.70;;;3.37;;
15155;SDS011;7678;50.058;8.306;2023-04-25T11:39:21;9.30;;;2.90;;
15155;SDS011;7678;50.058;8.306;2023-04-25T11:41:51;7.73;;;2.70;;
15155;SDS011;7678;50.058;8.306;2023-04-25T11:44:23;9.45;;;3.00;;
15155;SDS011;7678;50.058;8.306;2023-04-25T11:46:53;9.03;;;3.00;;
15155;SDS011;7678;50.058;8.306;2023-04-25T11:49:23;8.63;;;2.97;;
15155;SDS011;7678;50.058;8.306;2023-04-25T11:51:52;7.18;;;3.03;;
15155;SDS011;7678;50.058;8.306;2023-04-25T11:54:20;9.25;;;3.40;;
15155;SDS011;7678;50.058;8.306;2023-04-25T11:56:48;9.77;;;2.80;;
15155;SDS011;7678;50.058;8.306;2023-04-25T11:59:16;6.33;;;2.83;;
15155;SDS011;7678;50.058;8.306;2023-04-25T12:01:49;7.47;;;2.70;;
15155;SDS011;7678;50.058;8.306;2023-04-25T12:04:17;8.17;;;3.20;;
15155;SDS011;7678;50.058;8.306;2023-04-25T12:06:47;5.63;;;2.83;;
15155;SDS011;7678;50.058;8.306;2023-04-25T12:09:18;8.57;;;3.20;;
15155;SDS011;7678;50.058;8.306;2023-04-25T12:11:48;9.53;;;3.10;;
15155;SDS011;7678;50.058;8.306;2023-04-25T12:14:23;9.33;;;2.97;;
15155;SDS011;7678;50.058;8.306;2023-04-25T12:16:54;8.77;;;3.07;;
15155;SDS011;7678;50.058;8.306;2023-04-25T12:19:24;7.70;;;2.67;;
15155;SDS011;7678;50.058;8.306;2023-04-25T12:21:53;7.27;;;2.60;;
15155;SDS011;7678;50.058;8.306;2023-04-25T12:24:25;6.37;;;2.37;;
15155;SDS011;7678;50.058;8.306;2023-04-25T12:26:58;4.60;;;2.03;;
15155;SDS011;7678;50.058;8.306;2023-04-25T12:29:29;8.32;;;2.92;;
15155;SDS011;7678;50.058;8.306;2023-04-25T12:32:13;7.20;;;2.60;;
15155;SDS011;7678;50.058;8.306;2023-04-25T12:34:41;10.97;;;2.50;;
15155;SDS011;7678;50.058;8.306;2023-04-25T12:37:09;5.27;;;2.77;;
15155;SDS011;7678;50.058;8.306;2023-04-25T12:39:38;6.57;;;2.50;;
15155;SDS011;7678;50.058;8.306;2023-04-25T12:42:06;7.13;;;2.70;;
15155;SDS011;7678;50.058;8.306;2023-04-25T12:44:39;8.30;;;2.60;;
15155;SDS011;7678;50.058;8.306;2023-04-25T12:47:07;7.57;;;2.73;;
15155;SDS011;7678;50.058;8.306;2023-04-25T12:49:36;7.27;;;2.67;;
15155;SDS011;7678;50.058;8.306;2023-04-25T12:52:04;10.10;;;2.60;;
15155;SDS011;7678;50.058;8.306;2023-04-25T12:54:32;9.17;;;3.00;;
15155;SDS011;7678;50.058;8.306;2023-04-25T12:57:00;9.07;;;2.70;;
15155;SDS011;7678;50.058;8.306;2023-04-25T12:59:29;10.90;;;2.90;;
15155;SDS011;7678;50.058;8.306;2023-04-25T13:01:58;13.40;;;3.10;;
15155;SDS011;7678;50.058;8.306;2023-04-25T13:04:26;47.00;;;23.93;;
15155;SDS011;7678;50.058;8.306;2023-04-25T13:06:54;13.03;;;2.93;;
15155;SDS011;7678;50.058;8.306;2023-04-25T13:09:22;8.07;;;2.80;;
15155;SDS011;7678;50.058;8.306;2023-04-25T13:14:23;22.00;;;10.97;;
15155;SDS011;7678;50.058;8.306;2023-04-25T13:16:51;10.73;;;5.47;;
15155;SDS011;7678;50.058;8.306;2023-04-25T13:19:21;8.67;;;3.87;;
15155;SDS011;7678;50.058;8.306;2023-04-25T13:21:49;11.30;;;4.13;;
15155;SDS011;7678;50.058;8.306;2023-04-25T13:24:19;10.93;;;3.83;;
15155;SDS011;7678;50.058;8.306;2023-04-25T13:26:47;5.63;;;3.63;;
15155;SDS011;7678;50.058;8.306;2023-04-25T13:29:15;8.57;;;2.70;;
15155;SDS011;7678;50.058;8.306;2023-04-25T13:31:43;8.77;;;3.60;;
15155;SDS011;7678;50.058;8.306;2023-04-25T13:34:11;6.50;;;2.80;;
15155;SDS011;7678;50.058;8.306;2023-04-25T13:36:41;12.07;;;4.00;;
15155;SDS011;7678;50.058;8.306;2023-04-25T13:39:09;6.07;;;2.80;;
15155;SDS011;7678;50.058;8.306;2023-04-25T13:41:38;4.43;;;2.47;;
15155;SDS011;7678;50.058;8.306;2023-04-25T13:44:06;9.43;;;3.23;;
15155;SDS011;7678;50.058;8.306;2023-04-25T13:46:34;10.80;;;4.93;;
15155;SDS011;7678;50.058;8.306;2023-04-25T13:49:12;10.30;;;5.43;;
15155;SDS011;7678;50.058;8.306;2023-04-25T13:51:42;8.67;;;3.30;;
15155;SDS011;7678;50.058;8.306;2023-04-25T13:54:10;7.90;;;3.57;;
15155;SDS011;7678;50.058;8.306;2023-04-25T13:56:38;5.47;;;3.20;;
15155;SDS011;7678;50.058;8.306;2023-04-25T13:59:08;9.33;;;2.67;;
15155;SDS011;7678;50.058;8.306;2023-04-25T14:01:36;7.70;;;2.93;;
15155;SDS011;7678;50.058;8.306;2023-04-25T14:04:04;5.73;;;2.50;;
15155;SDS011;7678;50.058;8.306;2023-04-25T14:06:32;7.70;;;3.40;;
15155;SDS011;7678;50.058;8.306;2023-04-25T14:09:03;7.60;;;2.90;;
15155;SDS011;7678;50.058;8.306;2023-04-25T14:11:33;5.63;;;2.50;;
15155;SDS011;7678;50.058;8.306;2023-04-25T14:14:01;7.23;;;2.90;;
15155;SDS011;7678;50.058;8.306;2023-04-25T14:16:29;8.00;;;3.17;;
15155;SDS011;7678;50.058;8.306;2023-04-25T14:18:57;8.43;;;3.77;;
15155;SDS011;7678;50.058;8.306;2023-04-25T14:21:26;8.10;;;2.77;;
15155;SDS011;7678;50.058;8.306;2023-04-25T14:23:54;6.87;;;3.03;;
15155;SDS011;7678;50.058;8.306;2023-04-25T14:26:23;8.57;;;3.37;;
15155;SDS011;7678;50.058;8.306;2023-04-25T14:28:52;7.33;;;2.53;;
15155;SDS011;7678;50.058;8.306;2023-04-25T14:31:20;6.83;;;2.63;;
15155;SDS011;7678;50.058;8.306;2023-04-25T14:33:48;19.03;;;3.10;;
15155;SDS011;7678;50.058;8.306;2023-04-25T14:36:16;6.40;;;2.27;;
15155;SDS011;7678;50.058;8.306;2023-04-25T14:38:44;6.03;;;2.60;;
15155;SDS011;7678;50.058;8.306;2023-04-25T14:41:12;7.77;;;2.50;;
15155;SDS011;7678;50.058;8.306;2023-04-25T14:43:42;7.77;;;4.43;;
15155;SDS011;7678;50.058;8.306;2023-04-25T14:46:11;8.77;;;2.77;;
15155;SDS011;7678;50.058;8.306;2023-04-25T14:48:39;7.23;;;2.80;;
15155;SDS011;7678;50.058;8.306;2023-04-25T14:51:07;7.37;;;3.17;;
15155;SDS011;7678;50.058;8.306;2023-04-25T14:53:35;6.50;;;2.57;;
15155;SDS011;7678;50.058;8.306;2023-04-25T14:56:03;9.37;;;3.40;;
15155;SDS011;7678;50.058;8.306;2023-04-25T14:58:33;8.87;;;2.73;;
15155;SDS011;7678;50.058;8.306;2023-04-25T15:01:03;10.33;;;4.83;;
15155;SDS011;7678;50.058;8.306;2023-04-25T15:03:31;8.07;;;2.60;;
15155;SDS011;7678;50.058;8.306;2023-04-25T15:05:59;8.37;;;2.90;;
15155;SDS011;7678;50.058;8.306;2023-04-25T15:08:27;11.80;;;4.70;;
15155;SDS011;7678;50.058;8.306;2023-04-25T15:10:55;8.37;;;2.97;;
15155;SDS011;7678;50.058;8.306;2023-04-25T15:13:23;8.83;;;3.30;;
15155;SDS011;7678;50.058;8.306;2023-04-25T15:15:52;8.40;;;3.50;;
15155;SDS011;7678;50.058;8.306;2023-04-25T15:18:21;8.87;;;3.50;;